sensor_id;sensor_type;location;lat;lon;timestamp;temperature;humidity
11812;DHT22;5963;50.184;9.162;2023-04-06T00:00:54;1.30;99.90
11812;DHT22;5963;50.184;9.162;2023-04-06T00:03:25;1.20;99.90
11812;DHT22;5963;50.184;9.162;2023-04-06T00:05:55;1.20;99.90
11812;DHT22;5963;50.184;9.162;2023-04-06T00:08:25;1.20;99.90
11812;DHT22;5963;50.184;9.162;2023-04-06T00:10:55;1.20;99.90
11812;DHT22;5963;50.184;9.162;2023-04-06T00:13:24;1.20;99.90
11812;DHT22;5963;50.184;9.162;2023-04-06T00:15:54;1.20;99.90
11812;DHT22;5963;50.184;9.162;2023-04-06T00:18:26;1.30;99.90
11812;DHT22;5963;50.184;9.162;2023-04-06T00:20:55;1.20;99.90
11812;DHT22;5963;50.184;9.162;2023-04-06T00:23:25;1.30;99.90
11812;DHT22;5963;50.184;9.162;2023-04-06T00:25:55;1.20;99.90
11812;DHT22;5963;50.184;9.162;2023-04-06T00:28:25;1.20;99.90
11812;DHT22;5963;50.184;9.162;2023-04-06T00:30:55;1.10;99.90
11812;DHT22;5963;50.184;9.162;2023-04-06T00:33:26;1.10;99.90
11812;DHT22;5963;50.184;9.162;2023-04-06T00:35:56;1.00;99.90
11812;DHT22;5963;50.184;9.162;2023-04-06T00:38:26;0.90;99.90
11812;DHT22;5963;50.184;9.162;2023-04-06T00:40:58;0.90;99.90
11812;DHT22;5963;50.184;9.162;2023-04-06T00:43:28;0.90;99.90
11812;DHT22;5963;50.184;9.162;2023-04-06T00:45:58;0.90;99.90
11812;DHT22;5963;50.184;9.162;2023-04-06T00:48:29;0.80;99.90
11812;DHT22;5963;50.184;9.162;2023-04-06T00:51:00;0.80;99.90
11812;DHT22;5963;50.184;9.162;2023-04-06T00:53:30;0.70;99.90
11812;DHT22;5963;50.184;9.162;2023-04-06T00:55:59;0.70;99.90
11812;DHT22;5963;50.184;9.162;2023-04-06T00:58:29;0.70;99.90
11812;DHT22;5963;50.184;9.162;2023-04-06T01:01:00;0.70;99.90
11812;DHT22;5963;50.184;9.162;2023-04-06T01:03:31;0.70;99.90
11812;DHT22;5963;50.184;9.162;2023-04-06T01:06:01;0.70;99.90
11812;DHT22;5963;50.184;9.162;2023-04-06T01:08:31;0.70;99.90
11812;DHT22;5963;50.184;9.162;2023-04-06T01:11:01;0.70;99.90
11812;DHT22;5963;50.184;9.162;2023-04-06T01:13:31;0.70;99.90
11812;DHT22;5963;50.184;9.162;2023-04-06T01:16:01;0.70;99.90
11812;DHT22;5963;50.184;9.162;2023-04-06T01:18:33;0.70;99.90
11812;DHT22;5963;50.184;9.162;2023-04-06T01:21:03;0.70;99.90
11812;DHT22;5963;50.184;9.162;2023-04-06T01:23:35;0.60;99.90
11812;DHT22;5963;50.184;9.162;2023-04-06T01:26:05;0.50;99.90
11812;DHT22;5963;50.184;9.162;2023-04-06T01:28:35;0.40;99.90
11812;DHT22;5963;50.184;9.162;2023-04-06T01:31:07;0.30;99.90
11812;DHT22;5963;50.184;9.162;2023-04-06T01:33:37;0.30;99.90
11812;DHT22;5963;50.184;9.162;2023-04-06T01:36:08;0.30;99.90
11812;DHT22;5963;50.184;9.162;2023-04-06T01:38:39;0.20;99.90
11812;DHT22;5963;50.184;9.162;2023-04-06T01:41:10;0.30;99.90
11812;DHT22;5963;50.184;9.162;2023-04-06T01:43:39;0.40;99.90
11812;DHT22;5963;50.184;9.162;2023-04-06T01:46:09;0.30;99.90
11812;DHT22;5963;50.184;9.162;2023-04-06T01:48:39;0.30;99.90
11812;DHT22;5963;50.184;9.162;2023-04-06T01:51:09;0.30;99.90
11812;DHT22;5963;50.184;9.162;2023-04-06T01:53:41;0.30;99.90
11812;DHT22;5963;50.184;9.162;2023-04-06T01:56:11;0.20;99.90
11812;DHT22;5963;50.184;9.162;2023-04-06T01:58:41;0.10;99.90
11812;DHT22;5963;50.184;9.162;2023-04-06T02:01:10;0.00;99.90
11812;DHT22;5963;50.184;9.162;2023-04-06T02:03:40;0.00;99.90
11812;DHT22;5963;50.184;9.162;2023-04-06T02:06:10;0.10;99.90
11812;DHT22;5963;50.184;9.162;2023-04-06T02:08:42;0.10;99.90
11812;DHT22;5963;50.184;9.162;2023-04-06T02:11:12;0.10;99.90
11812;DHT22;5963;50.184;9.162;2023-04-06T02:13:41;0.00;99.90
11812;DHT22;5963;50.184;9.162;2023-04-06T02:16:11;0.00;99.90
11812;DHT22;5963;50.184;9.162;2023-04-06T02:18:41;0.00;99.90
11812;DHT22;5963;50.184;9.162;2023-04-06T02:21:11;0.00;99.90
11812;DHT22;5963;50.184;9.162;2023-04-06T02:23:42;-0.10;99.90
11812;DHT22;5963;50.184;9.162;2023-04-06T02:26:12;-0.10;99.90
11812;DHT22;5963;50.184;9.162;2023-04-06T02:28:42;-0.10;99.90
11812;DHT22;5963;50.184;9.162;2023-04-06T02:31:12;-0.20;99.90
11812;DHT22;5963;50.184;9.162;2023-04-06T02:33:43;-0.10;99.90
11812;DHT22;5963;50.184;9.162;2023-04-06T02:36:13;-0.20;99.90
11812;DHT22;5963;50.184;9.162;2023-04-06T02:38:44;-0.30;99.90
11812;DHT22;5963;50.184;9.162;2023-04-06T02:41:14;-0.40;99.90
11812;DHT22;5963;50.184;9.162;2023-04-06T02:43:44;-0.40;99.90
11812;DHT22;5963;50.184;9.162;2023-04-06T02:46:12;-0.30;99.90
11812;DHT22;5963;50.184;9.162;2023-04-06T02:48:42;-0.30;99.90
11812;DHT22;5963;50.184;9.162;2023-04-06T02:51:11;-0.40;99.90
11812;DHT22;5963;50.184;9.162;2023-04-06T02:53:41;-0.40;99.90
11812;DHT22;5963;50.184;9.162;2023-04-06T02:56:13;-0.50;99.90
11812;DHT22;5963;50.184;9.162;2023-04-06T02:58:43;-0.60;99.90
11812;DHT22;5963;50.184;9.162;2023-04-06T03:01:13;-0.60;99.90
11812;DHT22;5963;50.184;9.162;2023-04-06T03:03:43;-0.50;99.90
11812;DHT22;5963;50.184;9.162;2023-04-06T03:06:13;-0.60;99.90
11812;DHT22;5963;50.184;9.162;2023-04-06T03:08:42;-0.60;99.90
11812;DHT22;5963;50.184;9.162;2023-04-06T03:11:14;-0.70;99.90
11812;DHT22;5963;50.184;9.162;2023-04-06T03:13:44;-0.60;99.90
11812;DHT22;5963;50.184;9.162;2023-04-06T03:16:14;-0.60;99.90
11812;DHT22;5963;50.184;9.162;2023-04-06T03:18:44;-0.70;99.90
11812;DHT22;5963;50.184;9.162;2023-04-06T03:21:15;-0.70;99.90
11812;DHT22;5963;50.184;9.162;2023-04-06T03:23:45;-0.70;99.90
11812;DHT22;5963;50.184;9.162;2023-04-06T03:26:18;-0.70;99.90
11812;DHT22;5963;50.184;9.162;2023-04-06T03:28:48;-0.80;99.90
11812;DHT22;5963;50.184;9.162;2023-04-06T03:31:18;-0.80;99.90
11812;DHT22;5963;50.184;9.162;2023-04-06T03:33:48;-0.70;99.90
11812;DHT22;5963;50.184;9.162;2023-04-06T03:36:18;-0.70;99.90
11812;DHT22;5963;50.184;9.162;2023-04-06T03:38:48;-0.70;99.90
11812;DHT22;5963;50.184;9.162;2023-04-06T03:41:19;-0.70;99.90
11812;DHT22;5963;50.184;9.162;2023-04-06T03:43:49;-0.70;99.90
11812;DHT22;5963;50.184;9.162;2023-04-06T03:46:19;-0.80;99.90
11812;DHT22;5963;50.184;9.162;2023-04-06T03:48:50;-0.80;99.90
11812;DHT22;5963;50.184;9.162;2023-04-06T03:51:20;-0.80;99.90
11812;DHT22;5963;50.184;9.162;2023-04-06T03:53:50;-0.90;99.90
11812;DHT22;5963;50.184;9.162;2023-04-06T03:56:21;-0.90;99.90
11812;DHT22;5963;50.184;9.162;2023-04-06T03:58:51;-1.00;99.90
11812;DHT22;5963;50.184;9.162;2023-04-06T04:01:21;-1.00;99.90
11812;DHT22;5963;50.184;9.162;2023-04-06T04:03:51;-0.90;99.90
11812;DHT22;5963;50.184;9.162;2023-04-06T04:06:21;-0.90;99.90
11812;DHT22;5963;50.184;9.162;2023-04-06T04:08:51;-0.90;99.90
11812;DHT22;5963;50.184;9.162;2023-04-06T04:11:21;-0.90;99.90
11812;DHT22;5963;50.184;9.162;2023-04-06T04:13:51;-0.90;99.90
11812;DHT22;5963;50.184;9.162;2023-04-06T04:16:21;-1.00;99.90
11812;DHT22;5963;50.184;9.162;2023-04-06T04:18:51;-0.90;99.90
11812;DHT22;5963;50.184;9.162;2023-04-06T04:21:21;-0.90;99.90
11812;DHT22;5963;50.184;9.162;2023-04-06T04:23:51;-0.90;99.90
11812;DHT22;5963;50.184;9.162;2023-04-06T04:26:22;-0.90;99.90
11812;DHT22;5963;50.184;9.162;2023-04-06T04:28:52;-0.90;99.90
11812;DHT22;5963;50.184;9.162;2023-04-06T04:31:22;-1.00;99.90
11812;DHT22;5963;50.184;9.162;2023-04-06T04:33:52;-1.00;99.90
11812;DHT22;5963;50.184;9.162;2023-04-06T04:36:21;-1.00;99.90
11812;DHT22;5963;50.184;9.162;2023-04-06T04:38:52;-1.10;99.90
11812;DHT22;5963;50.184;9.162;2023-04-06T04:41:23;-1.10;99.90
11812;DHT22;5963;50.184;9.162;2023-04-06T04:43:53;-1.00;99.90
11812;DHT22;5963;50.184;9.162;2023-04-06T04:46:22;-1.10;99.90
11812;DHT22;5963;50.184;9.162;2023-04-06T04:48:52;-1.20;99.90
11812;DHT22;5963;50.184;9.162;2023-04-06T04:51:22;-1.30;99.90
11812;DHT22;5963;50.184;9.162;2023-04-06T04:53:53;-1.30;99.90
11812;DHT22;5963;50.184;9.162;2023-04-06T04:56:24;-1.30;99.90
11812;DHT22;5963;50.184;9.162;2023-04-06T04:58:55;-1.30;99.90
11812;DHT22;5963;50.184;9.162;2023-04-06T05:01:25;-1.20;99.90
11812;DHT22;5963;50.184;9.162;2023-04-06T05:03:56;-1.30;99.90
11812;DHT22;5963;50.184;9.162;2023-04-06T05:06:26;-1.20;99.90
11812;DHT22;5963;50.184;9.162;2023-04-06T05:08:55;-1.20;99.90
11812;DHT22;5963;50.184;9.162;2023-04-06T05:11:27;-1.20;99.90
11812;DHT22;5963;50.184;9.162;2023-04-06T05:13:56;-1.00;99.90
11812;DHT22;5963;50.184;9.162;2023-04-06T05:16:26;-1.00;99.90
11812;DHT22;5963;50.184;9.162;2023-04-06T05:18:56;-0.90;99.90
11812;DHT22;5963;50.184;9.162;2023-04-06T05:21:26;-0.90;99.90
11812;DHT22;5963;50.184;9.162;2023-04-06T05:23:56;-0.80;99.90
11812;DHT22;5963;50.184;9.162;2023-04-06T05:26:27;-0.80;99.90
11812;DHT22;5963;50.184;9.162;2023-04-06T05:28:57;-0.70;99.90
11812;DHT22;5963;50.184;9.162;2023-04-06T05:31:27;-0.50;99.90
11812;DHT22;5963;50.184;9.162;2023-04-06T05:33:57;0.00;99.90
11812;DHT22;5963;50.184;9.162;2023-04-06T05:36:27;0.60;99.90
11812;DHT22;5963;50.184;9.162;2023-04-06T05:38:56;0.90;99.90
11812;DHT22;5963;50.184;9.162;2023-04-06T05:41:28;1.20;99.90
11812;DHT22;5963;50.184;9.162;2023-04-06T05:43:58;1.80;99.90
11812;DHT22;5963;50.184;9.162;2023-04-06T05:46:28;1.80;99.90
11812;DHT22;5963;50.184;9.162;2023-04-06T05:48:58;1.70;99.90
11812;DHT22;5963;50.184;9.162;2023-04-06T05:51:28;1.80;99.90
11812;DHT22;5963;50.184;9.162;2023-04-06T05:53:57;2.00;99.90
11812;DHT22;5963;50.184;9.162;2023-04-06T05:56:29;2.10;99.90
11812;DHT22;5963;50.184;9.162;2023-04-06T05:59:00;2.10;99.90
11812;DHT22;5963;50.184;9.162;2023-04-06T06:01:30;2.30;99.90
11812;DHT22;5963;50.184;9.162;2023-04-06T06:04:00;2.60;99.90
11812;DHT22;5963;50.184;9.162;2023-04-06T06:06:29;2.90;99.90
11812;DHT22;5963;50.184;9.162;2023-04-06T06:08:59;3.00;99.90
11812;DHT22;5963;50.184;9.162;2023-04-06T06:11:32;2.90;99.90
11812;DHT22;5963;50.184;9.162;2023-04-06T06:14:02;3.10;99.90
11812;DHT22;5963;50.184;9.162;2023-04-06T06:16:32;2.80;99.90
11812;DHT22;5963;50.184;9.162;2023-04-06T06:19:02;2.60;99.90
11812;DHT22;5963;50.184;9.162;2023-04-06T06:21:31;2.70;99.90
11812;DHT22;5963;50.184;9.162;2023-04-06T06:24:01;2.90;99.90
11812;DHT22;5963;50.184;9.162;2023-04-06T06:26:32;3.10;99.90
11812;DHT22;5963;50.184;9.162;2023-04-06T06:29:03;2.90;99.90
11812;DHT22;5963;50.184;9.162;2023-04-06T06:31:34;3.30;99.90
11812;DHT22;5963;50.184;9.162;2023-04-06T06:34:05;2.90;99.90
11812;DHT22;5963;50.184;9.162;2023-04-06T06:36:35;2.90;99.90
11812;DHT22;5963;50.184;9.162;2023-04-06T06:39:04;3.00;99.90
11812;DHT22;5963;50.184;9.162;2023-04-06T06:41:36;3.00;99.90
11812;DHT22;5963;50.184;9.162;2023-04-06T06:44:06;3.40;99.90
11812;DHT22;5963;50.184;9.162;2023-04-06T06:46:37;3.50;99.90
11812;DHT22;5963;50.184;9.162;2023-04-06T06:49:06;3.70;99.90
11812;DHT22;5963;50.184;9.162;2023-04-06T06:51:36;3.50;99.90
11812;DHT22;5963;50.184;9.162;2023-04-06T06:54:06;3.50;99.90
11812;DHT22;5963;50.184;9.162;2023-04-06T06:56:38;3.70;99.90
11812;DHT22;5963;50.184;9.162;2023-04-06T06:59:08;3.90;99.90
11812;DHT22;5963;50.184;9.162;2023-04-06T07:01:39;3.90;99.90
11812;DHT22;5963;50.184;9.162;2023-04-06T07:04:09;3.90;99.90
11812;DHT22;5963;50.184;9.162;2023-04-06T07:06:39;4.00;99.90
11812;DHT22;5963;50.184;9.162;2023-04-06T07:09:08;4.40;99.90
11812;DHT22;5963;50.184;9.162;2023-04-06T07:11:40;4.70;99.90
11812;DHT22;5963;50.184;9.162;2023-04-06T07:14:09;4.80;99.90
11812;DHT22;5963;50.184;9.162;2023-04-06T07:16:40;4.50;99.90
11812;DHT22;5963;50.184;9.162;2023-04-06T07:19:10;4.40;99.90
11812;DHT22;5963;50.184;9.162;2023-04-06T07:21:40;4.50;99.90
11812;DHT22;5963;50.184;9.162;2023-04-06T07:26:40;5.00;99.90
11812;DHT22;5963;50.184;9.162;2023-04-06T07:29:10;5.10;99.90
11812;DHT22;5963;50.184;9.162;2023-04-06T07:31:40;5.30;99.90
11812;DHT22;5963;50.184;9.162;2023-04-06T07:34:10;5.50;99.90
11812;DHT22;5963;50.184;9.162;2023-04-06T07:36:40;5.60;99.90
11812;DHT22;5963;50.184;9.162;2023-04-06T07:39:10;6.00;99.90
11812;DHT22;5963;50.184;9.162;2023-04-06T07:41:42;6.40;99.90
11812;DHT22;5963;50.184;9.162;2023-04-06T07:44:12;6.30;99.90
11812;DHT22;5963;50.184;9.162;2023-04-06T07:46:42;6.40;99.90
11812;DHT22;5963;50.184;9.162;2023-04-06T07:49:11;6.70;99.90
11812;DHT22;5963;50.184;9.162;2023-04-06T07:51:41;6.90;99.90
11812;DHT22;5963;50.184;9.162;2023-04-06T07:54:11;7.00;99.90
11812;DHT22;5963;50.184;9.162;2023-04-06T07:56:43;7.30;99.90
11812;DHT22;5963;50.184;9.162;2023-04-06T07:59:12;7.60;99.90
11812;DHT22;5963;50.184;9.162;2023-04-06T08:01:43;8.00;99.90
11812;DHT22;5963;50.184;9.162;2023-04-06T08:04:13;8.10;99.90
11812;DHT22;5963;50.184;9.162;2023-04-06T08:06:42;8.30;99.90
11812;DHT22;5963;50.184;9.162;2023-04-06T08:09:12;8.40;99.90
11812;DHT22;5963;50.184;9.162;2023-04-06T08:11:43;8.70;99.90
11812;DHT22;5963;50.184;9.162;2023-04-06T08:14:14;8.90;99.90
11812;DHT22;5963;50.184;9.162;2023-04-06T08:16:44;9.10;99.90
11812;DHT22;5963;50.184;9.162;2023-04-06T08:19:14;9.40;99.90
11812;DHT22;5963;50.184;9.162;2023-04-06T08:21:46;9.50;99.90
11812;DHT22;5963;50.184;9.162;2023-04-06T08:24:16;9.70;99.90
11812;DHT22;5963;50.184;9.162;2023-04-06T08:26:47;9.90;99.90
11812;DHT22;5963;50.184;9.162;2023-04-06T08:29:17;10.10;99.90
11812;DHT22;5963;50.184;9.162;2023-04-06T08:31:50;10.10;99.90
11812;DHT22;5963;50.184;9.162;2023-04-06T08:34:20;10.10;99.90
11812;DHT22;5963;50.184;9.162;2023-04-06T08:36:49;10.20;99.90
11812;DHT22;5963;50.184;9.162;2023-04-06T08:39:19;10.10;99.90
11812;DHT22;5963;50.184;9.162;2023-04-06T08:41:55;10.20;99.90
11812;DHT22;5963;50.184;9.162;2023-04-06T08:44:28;10.30;99.90
11812;DHT22;5963;50.184;9.162;2023-04-06T08:46:58;9.80;99.90
11812;DHT22;5963;50.184;9.162;2023-04-06T08:49:29;10.10;99.90
11812;DHT22;5963;50.184;9.162;2023-04-06T08:51:59;10.30;99.90
11812;DHT22;5963;50.184;9.162;2023-04-06T08:54:29;10.40;99.80
11812;DHT22;5963;50.184;9.162;2023-04-06T08:57:00;10.50;99.70
11812;DHT22;5963;50.184;9.162;2023-04-06T08:59:32;10.10;97.60
11812;DHT22;5963;50.184;9.162;2023-04-06T09:02:05;10.40;97.70
11812;DHT22;5963;50.184;9.162;2023-04-06T09:04:36;10.30;97.00
11812;DHT22;5963;50.184;9.162;2023-04-06T09:07:06;10.30;96.40
11812;DHT22;5963;50.184;9.162;2023-04-06T09:09:36;10.90;97.80
11812;DHT22;5963;50.184;9.162;2023-04-06T09:12:22;11.30;97.70
11812;DHT22;5963;50.184;9.162;2023-04-06T09:14:52;11.70;95.00
11812;DHT22;5963;50.184;9.162;2023-04-06T09:17:23;12.10;94.40
11812;DHT22;5963;50.184;9.162;2023-04-06T09:19:54;12.30;93.40
11812;DHT22;5963;50.184;9.162;2023-04-06T09:22:25;12.00;93.00
11812;DHT22;5963;50.184;9.162;2023-04-06T09:24:56;11.90;90.90
11812;DHT22;5963;50.184;9.162;2023-04-06T09:27:35;11.20;91.80
11812;DHT22;5963;50.184;9.162;2023-04-06T09:30:06;11.40;87.80
11812;DHT22;5963;50.184;9.162;2023-04-06T09:32:45;11.70;90.10
11812;DHT22;5963;50.184;9.162;2023-04-06T09:35:15;11.80;90.20
11812;DHT22;5963;50.184;9.162;2023-04-06T09:37:46;11.80;84.80
11812;DHT22;5963;50.184;9.162;2023-04-06T09:40:16;11.80;84.00
11812;DHT22;5963;50.184;9.162;2023-04-06T09:42:49;11.70;85.00
11812;DHT22;5963;50.184;9.162;2023-04-06T09:45:20;12.10;84.20
11812;DHT22;5963;50.184;9.162;2023-04-06T09:47:50;12.40;82.90
11812;DHT22;5963;50.184;9.162;2023-04-06T09:50:22;12.30;84.40
11812;DHT22;5963;50.184;9.162;2023-04-06T09:52:55;12.40;80.80
11812;DHT22;5963;50.184;9.162;2023-04-06T09:55:30;12.00;83.80
11812;DHT22;5963;50.184;9.162;2023-04-06T09:58:07;12.50;81.90
11812;DHT22;5963;50.184;9.162;2023-04-06T10:00:46;12.60;83.00
11812;DHT22;5963;50.184;9.162;2023-04-06T10:03:25;12.40;84.00
11812;DHT22;5963;50.184;9.162;2023-04-06T10:05:59;11.90;83.30
11812;DHT22;5963;50.184;9.162;2023-04-06T10:08:30;12.10;83.40
11812;DHT22;5963;50.184;9.162;2023-04-06T10:11:04;12.10;81.70
11812;DHT22;5963;50.184;9.162;2023-04-06T10:13:35;12.00;83.10
11812;DHT22;5963;50.184;9.162;2023-04-06T10:16:06;12.20;84.20
11812;DHT22;5963;50.184;9.162;2023-04-06T10:18:37;12.60;86.00
11812;DHT22;5963;50.184;9.162;2023-04-06T10:21:11;13.10;83.60
11812;DHT22;5963;50.184;9.162;2023-04-06T10:23:46;13.00;83.70
11812;DHT22;5963;50.184;9.162;2023-04-06T10:26:20;13.10;81.50
11812;DHT22;5963;50.184;9.162;2023-04-06T10:28:51;13.20;83.90
11812;DHT22;5963;50.184;9.162;2023-04-06T10:31:28;13.10;80.80
11812;DHT22;5963;50.184;9.162;2023-04-06T10:33:59;13.30;80.50
11812;DHT22;5963;50.184;9.162;2023-04-06T10:36:31;13.10;82.50
11812;DHT22;5963;50.184;9.162;2023-04-06T10:39:03;13.00;84.50
11812;DHT22;5963;50.184;9.162;2023-04-06T10:41:41;13.20;83.80
11812;DHT22;5963;50.184;9.162;2023-04-06T10:44:22;13.50;84.20
11812;DHT22;5963;50.184;9.162;2023-04-06T10:46:55;13.50;84.80
11812;DHT22;5963;50.184;9.162;2023-04-06T10:49:26;12.90;83.70
11812;DHT22;5963;50.184;9.162;2023-04-06T10:51:57;13.20;84.30
11812;DHT22;5963;50.184;9.162;2023-04-06T10:54:27;13.10;81.90
11812;DHT22;5963;50.184;9.162;2023-04-06T10:56:58;13.10;80.50
11812;DHT22;5963;50.184;9.162;2023-04-06T10:59:30;13.20;81.70
11812;DHT22;5963;50.184;9.162;2023-04-06T11:02:00;13.60;80.80
11812;DHT22;5963;50.184;9.162;2023-04-06T11:04:30;13.60;80.80
11812;DHT22;5963;50.184;9.162;2023-04-06T11:07:00;13.90;83.90
11812;DHT22;5963;50.184;9.162;2023-04-06T11:09:31;13.50;82.10
11812;DHT22;5963;50.184;9.162;2023-04-06T11:12:06;13.70;81.10
11812;DHT22;5963;50.184;9.162;2023-04-06T11:14:37;14.00;79.60
11812;DHT22;5963;50.184;9.162;2023-04-06T11:17:07;14.00;78.80
11812;DHT22;5963;50.184;9.162;2023-04-06T11:19:37;14.00;80.50
11812;DHT22;5963;50.184;9.162;2023-04-06T11:22:10;14.10;76.50
11812;DHT22;5963;50.184;9.162;2023-04-06T11:24:40;14.50;76.50
11812;DHT22;5963;50.184;9.162;2023-04-06T11:27:09;14.50;80.60
11812;DHT22;5963;50.184;9.162;2023-04-06T11:29:40;14.60;78.40
11812;DHT22;5963;50.184;9.162;2023-04-06T11:32:10;15.00;76.20
11812;DHT22;5963;50.184;9.162;2023-04-06T11:34:41;15.20;76.10
11812;DHT22;5963;50.184;9.162;2023-04-06T11:37:11;15.50;74.90
11812;DHT22;5963;50.184;9.162;2023-04-06T11:39:43;15.10;73.10
11812;DHT22;5963;50.184;9.162;2023-04-06T11:42:13;15.20;73.60
11812;DHT22;5963;50.184;9.162;2023-04-06T11:44:54;14.50;77.00
11812;DHT22;5963;50.184;9.162;2023-04-06T11:47:30;14.10;74.90
11812;DHT22;5963;50.184;9.162;2023-04-06T11:50:08;13.70;73.80
11812;DHT22;5963;50.184;9.162;2023-04-06T11:52:38;13.40;77.70
11812;DHT22;5963;50.184;9.162;2023-04-06T11:55:13;13.70;75.50
11812;DHT22;5963;50.184;9.162;2023-04-06T11:57:43;14.40;75.40
11812;DHT22;5963;50.184;9.162;2023-04-06T12:00:17;15.00;74.90
11812;DHT22;5963;50.184;9.162;2023-04-06T12:02:48;14.40;72.90
11812;DHT22;5963;50.184;9.162;2023-04-06T12:05:18;14.10;75.00
11812;DHT22;5963;50.184;9.162;2023-04-06T12:07:48;13.80;75.50
11812;DHT22;5963;50.184;9.162;2023-04-06T12:10:18;13.90;76.10
11812;DHT22;5963;50.184;9.162;2023-04-06T12:12:48;14.30;73.30
11812;DHT22;5963;50.184;9.162;2023-04-06T12:15:19;14.40;75.10
11812;DHT22;5963;50.184;9.162;2023-04-06T12:17:50;14.70;75.80
11812;DHT22;5963;50.184;9.162;2023-04-06T12:20:19;14.50;74.40
11812;DHT22;5963;50.184;9.162;2023-04-06T12:22:56;14.40;76.00
11812;DHT22;5963;50.184;9.162;2023-04-06T12:25:28;14.10;71.70
11812;DHT22;5963;50.184;9.162;2023-04-06T12:27:59;14.10;74.20
11812;DHT22;5963;50.184;9.162;2023-04-06T12:30:30;13.70;72.50
11812;DHT22;5963;50.184;9.162;2023-04-06T12:33:01;14.10;72.10
11812;DHT22;5963;50.184;9.162;2023-04-06T12:35:35;14.10;71.20
11812;DHT22;5963;50.184;9.162;2023-04-06T12:38:05;14.30;72.10
11812;DHT22;5963;50.184;9.162;2023-04-06T12:40:36;14.20;71.50
11812;DHT22;5963;50.184;9.162;2023-04-06T12:43:06;14.40;73.40
11812;DHT22;5963;50.184;9.162;2023-04-06T12:45:41;14.80;71.40
11812;DHT22;5963;50.184;9.162;2023-04-06T12:48:11;15.00;70.00
11812;DHT22;5963;50.184;9.162;2023-04-06T12:50:41;14.80;70.50
11812;DHT22;5963;50.184;9.162;2023-04-06T12:53:11;15.20;71.10
11812;DHT22;5963;50.184;9.162;2023-04-06T12:55:41;14.70;71.10
11812;DHT22;5963;50.184;9.162;2023-04-06T12:58:11;14.20;72.40
11812;DHT22;5963;50.184;9.162;2023-04-06T13:00:42;14.10;71.40
11812;DHT22;5963;50.184;9.162;2023-04-06T13:03:12;14.20;69.80
11812;DHT22;5963;50.184;9.162;2023-04-06T13:05:45;14.30;70.50
11812;DHT22;5963;50.184;9.162;2023-04-06T13:08:18;14.10;70.30
11812;DHT22;5963;50.184;9.162;2023-04-06T13:10:50;14.00;69.80
11812;DHT22;5963;50.184;9.162;2023-04-06T13:13:25;13.90;72.20
11812;DHT22;5963;50.184;9.162;2023-04-06T13:15:58;13.90;69.60
11812;DHT22;5963;50.184;9.162;2023-04-06T13:18:29;14.20;71.70
11812;DHT22;5963;50.184;9.162;2023-04-06T13:21:01;14.60;69.30
11812;DHT22;5963;50.184;9.162;2023-04-06T13:23:31;14.40;69.80
11812;DHT22;5963;50.184;9.162;2023-04-06T13:26:08;14.10;69.60
11812;DHT22;5963;50.184;9.162;2023-04-06T13:28:39;14.10;69.80
11812;DHT22;5963;50.184;9.162;2023-04-06T13:31:11;14.60;68.20
11812;DHT22;5963;50.184;9.162;2023-04-06T13:33:42;14.50;68.80
11812;DHT22;5963;50.184;9.162;2023-04-06T13:36:12;13.90;66.70
11812;DHT22;5963;50.184;9.162;2023-04-06T13:38:45;14.10;68.30
11812;DHT22;5963;50.184;9.162;2023-04-06T13:41:18;14.10;69.00
11812;DHT22;5963;50.184;9.162;2023-04-06T13:43:49;14.00;67.30
11812;DHT22;5963;50.184;9.162;2023-04-06T13:46:21;13.80;68.00
11812;DHT22;5963;50.184;9.162;2023-04-06T13:48:52;14.00;68.40
11812;DHT22;5963;50.184;9.162;2023-04-06T13:51:23;13.70;66.00
11812;DHT22;5963;50.184;9.162;2023-04-06T13:53:52;13.60;68.00
11812;DHT22;5963;50.184;9.162;2023-04-06T13:56:23;13.50;69.70
11812;DHT22;5963;50.184;9.162;2023-04-06T13:58:56;13.40;67.60
11812;DHT22;5963;50.184;9.162;2023-04-06T14:01:27;13.60;69.00
11812;DHT22;5963;50.184;9.162;2023-04-06T14:03:58;13.80;66.70
11812;DHT22;5963;50.184;9.162;2023-04-06T14:06:29;13.70;67.60
11812;DHT22;5963;50.184;9.162;2023-04-06T14:08:59;13.90;67.40
11812;DHT22;5963;50.184;9.162;2023-04-06T14:11:29;14.00;67.10
11812;DHT22;5963;50.184;9.162;2023-04-06T14:13:58;13.90;65.80
11812;DHT22;5963;50.184;9.162;2023-04-06T14:16:30;13.50;66.50
11812;DHT22;5963;50.184;9.162;2023-04-06T14:19:03;13.80;65.40
11812;DHT22;5963;50.184;9.162;2023-04-06T14:21:32;14.10;66.70
11812;DHT22;5963;50.184;9.162;2023-04-06T14:24:03;14.10;66.80
11812;DHT22;5963;50.184;9.162;2023-04-06T14:26:33;14.10;65.50
11812;DHT22;5963;50.184;9.162;2023-04-06T14:29:03;14.10;65.30
11812;DHT22;5963;50.184;9.162;2023-04-06T14:31:35;13.60;66.10
11812;DHT22;5963;50.184;9.162;2023-04-06T14:34:05;13.60;67.20
11812;DHT22;5963;50.184;9.162;2023-04-06T14:36:36;13.80;68.00
11812;DHT22;5963;50.184;9.162;2023-04-06T14:39:06;13.80;66.50
11812;DHT22;5963;50.184;9.162;2023-04-06T14:41:36;13.70;66.70
11812;DHT22;5963;50.184;9.162;2023-04-06T14:44:06;13.30;66.20
11812;DHT22;5963;50.184;9.162;2023-04-06T14:46:41;13.20;66.60
11812;DHT22;5963;50.184;9.162;2023-04-06T14:49:14;13.50;68.20
11812;DHT22;5963;50.184;9.162;2023-04-06T14:51:43;13.50;68.70
11812;DHT22;5963;50.184;9.162;2023-04-06T14:54:13;13.70;67.80
11812;DHT22;5963;50.184;9.162;2023-04-06T14:56:43;13.60;68.00
11812;DHT22;5963;50.184;9.162;2023-04-06T14:59:13;13.60;66.70
11812;DHT22;5963;50.184;9.162;2023-04-06T15:01:44;13.60;65.50
11812;DHT22;5963;50.184;9.162;2023-04-06T15:04:14;13.60;66.70
11812;DHT22;5963;50.184;9.162;2023-04-06T15:06:44;13.60;68.10
11812;DHT22;5963;50.184;9.162;2023-04-06T15:09:14;13.30;66.30
11812;DHT22;5963;50.184;9.162;2023-04-06T15:11:44;13.30;67.80
11812;DHT22;5963;50.184;9.162;2023-04-06T15:14:14;13.20;66.90
11812;DHT22;5963;50.184;9.162;2023-04-06T15:16:45;13.10;66.00
11812;DHT22;5963;50.184;9.162;2023-04-06T15:19:15;13.10;68.60
11812;DHT22;5963;50.184;9.162;2023-04-06T15:21:45;13.30;67.40
11812;DHT22;5963;50.184;9.162;2023-04-06T15:24:16;13.50;67.10
11812;DHT22;5963;50.184;9.162;2023-04-06T15:26:46;13.30;65.70
11812;DHT22;5963;50.184;9.162;2023-04-06T15:29:16;13.20;67.00
11812;DHT22;5963;50.184;9.162;2023-04-06T15:31:47;13.20;67.40
11812;DHT22;5963;50.184;9.162;2023-04-06T15:34:16;13.10;66.50
11812;DHT22;5963;50.184;9.162;2023-04-06T15:36:46;13.00;68.60
11812;DHT22;5963;50.184;9.162;2023-04-06T15:39:16;13.00;68.30
11812;DHT22;5963;50.184;9.162;2023-04-06T15:41:46;12.90;66.90
11812;DHT22;5963;50.184;9.162;2023-04-06T15:44:16;12.80;66.20
11812;DHT22;5963;50.184;9.162;2023-04-06T15:46:48;12.80;66.50
11812;DHT22;5963;50.184;9.162;2023-04-06T15:49:19;12.90;67.90
11812;DHT22;5963;50.184;9.162;2023-04-06T15:51:49;12.70;66.50
11812;DHT22;5963;50.184;9.162;2023-04-06T15:54:19;12.60;67.30
11812;DHT22;5963;50.184;9.162;2023-04-06T15:56:49;12.60;68.10
11812;DHT22;5963;50.184;9.162;2023-04-06T15:59:19;12.60;68.00
11812;DHT22;5963;50.184;9.162;2023-04-06T16:01:50;12.50;67.70
11812;DHT22;5963;50.184;9.162;2023-04-06T16:04:21;12.50;68.20
11812;DHT22;5963;50.184;9.162;2023-04-06T16:06:51;12.50;67.80
11812;DHT22;5963;50.184;9.162;2023-04-06T16:09:21;12.40;68.80
11812;DHT22;5963;50.184;9.162;2023-04-06T16:11:51;12.40;68.40
11812;DHT22;5963;50.184;9.162;2023-04-06T16:14:20;12.30;70.30
11812;DHT22;5963;50.184;9.162;2023-04-06T16:16:52;12.20;70.20